Aeroporto :
LOGIN :

Iscrizione | Disclaimer

   EN    FR    IT 

 










Sommario :    VFR   VFR Marginale   IFR   IFR Intensivo   IFR Molto Intensivo
Visibilità : 
Base nubi : 
>= 8 km
>= 3000ft
5 / 8 km
1000 / 3000 ft
1500m / 5 km
500 / 1000 ft
800 / 1500m
200 / 500 ft
< 800m
< 200 ft
Simboli :   Temporali  Nebbia  Neve Forte  Precipitazioni Forti  Vento > 20 kt
SIGMETs :   Varie  Temporali  Ghiacco  Turbolenza  Onda orograficha  Ceneri Vulcaniche






- Altitudine del aeroporto : 52 ft
- Codice IATA : RNN


EKRN - Bornholm Ronne

ULTIMO METAR :
  • 201850Z AUTO 13011KT 6000 OVC010/// 08/07 Q1019

METARs OBSOLETI :
  • 201820Z AUTO 13012KT 7000 BKN011/// 08/07 Q1019
  • 201750Z AUTO 12011KT 8000 BKN011/// BKN093/// 09/08 Q1018
  • 201720Z AUTO 12011KT 9999 FEW013/// BKN096/// 09/07 Q1018
  • 201650Z AUTO 12010KT 9999 FEW012/// BKN095/// 09/08 Q1018
  • 201620Z AUTO 12010KT 9999 FEW095/// BKN220/// 08/08 Q1018

TAF TAF EKRN
Valido dal 20 a 18 ore il 20 a 23 ore UTC


201725Z 2018/2023 13012KT 9999 BKN015
TEMPO 2018/2019 BKN010
BECMG 2019/2022 BKN010
TEMPO 2022/2023 BKN008



MetMap, La meteo Aeronautica in un colpo d'occhio ! - Copyright ORBIFLY Dicembre 2007 - Disclaimer

ORBIFLY MET'MAP TEAM :

Programmazione e sviluppo : Alexandra Zaïnal
Concezione e sviluppo : Baudouin d'Aumeries
Co-Programmazione e sviluppo : Marc-Olivier Méhu
Supporto tecnico e logistico : Manuel Goepfert
Aiuto per la traduzione : Arnaldo La Scala

Contatto : metmap@orbifly.com




FONTI E CREDITI :

   NOAA